Meteoalarm sivustolla ongelmia. Varoituksia ei saada haettua. Yritä myöhemmin uudestaan.: www.meteoalarm.eu .

Lähimmät METAR asemat

 

EFPO - Pori (mil/Civ), Finland
Distance from station: PLU 42km
Päivitetty: 12/08/2020 20:50
Enimmäkseen pilvistä
Enimmäkseen pilvistä
 Wind from KA
Tuuli: KA 6 km/h
Lämpötila: 16°C
Kastepiste: 11°C
Kosteus: 72%
Ilmanpaine: 1019 hPa
Clouds: Enimmäkseen pilvistä
Visibility: 10 km
Cloud details: Enimmäkseen pilvistä 1402 m
2020/08/12 17:50 EFPO 121750Z AUTO 13003KT 9999 BKN046 16/11 Q1019
EFTU - Turku/Abo, Finland
Distance from station: E 68km
Päivitetty: 12/08/2020 20:50
Heikkoa sadetta, Showers, Thunderstorm
Heikkoa sadetta, Showers, Thunderstorm
 Wind from LLO
Tuuli: LLO 9 km/h
Lämpötila: 15°C
Kastepiste: 14°C
Kosteus: 94%
Ilmanpaine: 1019 hPa
Yhteenveto: Heikkoa sadetta, Showers
Clouds: Thunderstorm
Visibility: 10 km
2020/08/12 17:50 EFTU 121750Z AUTO 25005KT 210V270 9999 -SHRA //////CB 15/14 Q1019
 
EFTP - Tampere/Pirkkala, Finland
Distance from station: IKO 84km
Päivitetty: 12/08/2020 20:50
Heikkoa sadetta, Showers, Puolipilvistä
Heikkoa sadetta, Showers, Puolipilvistä
 Wind from I
Tuuli: I 13 km/h
Lämpötila: 14°C
Kastepiste: 10°C
Kosteus: 77%
Ilmanpaine: 1020 hPa
Yhteenveto: Heikkoa sadetta, Showers
Clouds: Puolipilvistä
Visibility: 10 km
2020/08/12 17:50 EFTP 121750Z AUTO 09007KT 9999 -SHRA NSC 14/10 Q1020